Time;durP1;ratioP1;P1;durP2;ratioP2;P2;SDS_P1;SDS_P2;PMS_P1;PMS_P2;Temp;Humidity;BMP_temperature;BMP_pressure;BME280_temperature;BME280_humidity;BME280_pressure;Samples;Min_cycle;Max_cycle;Signal;HPM_P1;HPM_P2
2022/10/25 00:00:39;;;;;;;5.78;2.63;;;11.60;99.90;;;;;;5042044;28;20053;-83
2022/10/25 00:03:09;;;;;;;7.20;2.65;;;11.50;99.90;;;;;;5029384;28;20041;-83
2022/10/25 00:05:36;;;;;;;8.68;2.88;;;11.50;99.90;;;;;;5015456;28;20060;-83
2022/10/25 00:08:03;;;;;;;10.70;3.45;;;11.50;99.90;;;;;;5015508;28;20084;-82
2022/10/25 00:10:29;;;;;;;6.30;2.63;;;11.60;99.90;;;;;;5031572;28;20041;-82
2022/10/25 00:12:55;;;;;;;8.40;3.08;;;11.60;99.90;;;;;;5035582;28;20037;-83
2022/10/25 00:15:22;;;;;;;5.70;2.85;;;11.60;99.90;;;;;;5030217;28;20045;-83
2022/10/25 00:17:47;;;;;;;5.80;3.33;;;11.60;99.90;;;;;;5015620;28;20391;-82
2022/10/25 00:20:13;;;;;;;6.20;3.22;;;11.60;99.90;;;;;;5030642;28;20034;-82
2022/10/25 00:22:39;;;;;;;10.10;3.63;;;11.60;99.90;;;;;;5032194;28;20132;-83
2022/10/25 00:25:06;;;;;;;7.47;3.15;;;11.70;99.90;;;;;;5035976;28;20033;-79
2022/10/25 00:27:31;;;;;;;8.98;3.05;;;11.70;99.90;;;;;;5033287;28;20038;-79
2022/10/25 00:29:57;;;;;;;15.68;3.55;;;11.70;99.90;;;;;;5029755;28;20410;-79
2022/10/25 00:32:23;;;;;;;6.20;3.25;;;11.70;99.90;;;;;;5014209;28;20045;-79
2022/10/25 00:34:49;;;;;;;15.15;3.75;;;11.80;99.90;;;;;;5030592;28;20045;-79
2022/10/25 00:37:14;;;;;;;8.73;3.72;;;11.80;99.90;;;;;;5019116;28;20463;-79
2022/10/25 00:39:40;;;;;;;8.82;3.42;;;11.70;99.90;;;;;;5042698;28;20072;-79
2022/10/25 00:42:08;;;;;;;6.70;3.42;;;11.80;99.90;;;;;;5031034;28;20492;-81
2022/10/25 00:44:40;;;;;;;6.72;3.38;;;11.70;99.90;;;;;;5035187;28;20533;-82
2022/10/25 00:47:14;;;;;;;15.23;4.25;;;11.80;99.90;;;;;;5018798;28;20128;-82
2022/10/25 00:49:42;;;;;;;8.07;3.63;;;11.80;99.90;;;;;;5019593;28;20049;-82
2022/10/25 00:52:09;;;;;;;8.10;3.80;;;11.80;99.90;;;;;;5040934;28;20510;-81
2022/10/25 00:54:40;;;;;;;11.63;3.65;;;11.80;99.90;;;;;;5035094;28;20099;-81
2022/10/25 00:57:16;;;;;;;7.82;3.33;;;11.90;99.90;;;;;;5018216;28;20043;-81
2022/10/25 00:59:44;;;;;;;8.85;3.83;;;11.90;99.90;;;;;;5033215;28;20044;-82
2022/10/25 01:02:10;;;;;;;12.85;4.30;;;11.90;99.90;;;;;;5032482;28;20033;-81
2022/10/25 01:04:36;;;;;;;11.27;3.92;;;12.00;99.90;;;;;;5020219;28;20426;-81
2022/10/25 01:07:02;;;;;;;11.88;4.90;;;12.00;99.90;;;;;;5037437;28;20095;-81
2022/10/25 01:09:30;;;;;;;10.35;4.57;;;12.10;99.90;;;;;;5018402;28;20057;-82
2022/10/25 01:11:56;;;;;;;9.90;4.70;;;12.10;99.90;;;;;;5032716;28;20076;-82
2022/10/25 01:14:22;;;;;;;16.35;4.53;;;12.20;99.90;;;;;;5034225;28;20049;-79
2022/10/25 01:17:03;;;;;;;8.40;4.68;;;12.20;99.90;;;;;;5046854;28;20033;-79
2022/10/25 01:19:50;;;;;;;13.55;4.75;;;12.20;99.90;;;;;;5034964;28;20084;-79
2022/10/25 01:22:41;;;;;;;7.38;4.00;;;12.30;99.90;;;;;;5050815;28;20038;-79
2022/10/25 01:25:34;;;;;;;12.10;4.55;;;12.30;99.90;;;;;;5018414;28;20045;-79
2022/10/25 01:28:18;;;;;;;11.10;4.13;;;12.30;99.90;;;;;;5032330;28;20056;-79
2022/10/25 01:31:15;;;;;;;7.13;3.65;;;12.30;99.90;;;;;;5018145;28;20058;-83
2022/10/25 01:34:09;;;;;;;13.05;4.20;;;12.30;99.90;;;;;;5017610;28;20045;-83
2022/10/25 01:37:04;;;;;;;11.20;3.78;;;12.40;99.90;;;;;;5034768;28;20506;-83
2022/10/25 01:39:34;;;;;;;7.53;3.75;;;12.40;99.90;;;;;;5033763;28;20075;-83
2022/10/25 01:42:24;;;;;;;8.98;3.67;;;12.50;99.90;;;;;;5033082;28;20395;-83
2022/10/25 01:45:01;;;;;;;12.50;4.07;;;12.50;99.90;;;;;;5033178;28;20487;-83
2022/10/25 01:47:38;;;;;;;6.38;3.58;;;12.50;99.90;;;;;;5018586;28;20045;-82
2022/10/25 01:50:12;;;;;;;8.60;3.17;;;12.50;99.90;;;;;;5017050;28;20033;-82
2022/10/25 01:52:38;;;;;;;7.55;3.50;;;12.50;99.90;;;;;;5038602;28;20045;-82
2022/10/25 01:55:09;;;;;;;8.77;3.65;;;12.60;99.90;;;;;;5050342;28;20048;-82
2022/10/25 01:58:05;;;;;;;14.68;4.03;;;12.60;99.90;;;;;;5051473;28;20128;-82
2022/10/25 02:00:41;;;;;;;9.02;2.90;;;12.60;99.90;;;;;;5031680;28;20298;-82
2022/10/25 02:03:29;;;;;;;5.05;2.80;;;12.60;99.90;;;;;;5033638;28;20396;-82
2022/10/25 02:06:06;;;;;;;10.25;2.95;;;12.60;99.90;;;;;;5034679;28;20056;-82
2022/10/25 02:08:50;;;;;;;7.18;2.80;;;12.60;99.90;;;;;;5018309;28;20483;-82
2022/10/25 02:11:27;;;;;;;8.85;3.05;;;12.60;99.90;;;;;;5035074;28;20033;-82
2022/10/25 02:14:15;;;;;;;12.70;3.10;;;12.60;99.90;;;;;;5015021;28;20044;-82
2022/10/25 02:16:57;;;;;;;7.07;3.03;;;12.50;99.90;;;;;;5016905;28;20033;-82
2022/10/25 02:19:33;;;;;;;5.15;2.72;;;12.50;99.90;;;;;;5017757;28;20038;-82
2022/10/25 02:22:01;;;;;;;6.85;2.80;;;12.50;99.90;;;;;;5033888;28;20181;-83
2022/10/25 02:24:29;;;;;;;9.60;2.65;;;12.50;99.90;;;;;;5031491;28;20117;-83
2022/10/25 02:26:57;;;;;;;12.50;3.00;;;12.60;99.90;;;;;;5016989;28;20068;-83
2022/10/25 02:29:26;;;;;;;5.00;2.47;;;12.60;99.90;;;;;;5016149;28;20064;-83
2022/10/25 02:31:52;;;;;;;10.13;2.85;;;12.60;99.90;;;;;;5034137;28;20102;-83
2022/10/25 02:34:18;;;;;;;6.10;2.17;;;12.60;99.90;;;;;;5016528;28;20857;-83
2022/10/25 02:36:48;;;;;;;5.63;2.20;;;12.70;99.90;;;;;;5032314;28;20034;-82
2022/10/25 02:39:14;;;;;;;8.63;3.00;;;12.60;99.90;;;;;;5016734;28;20049;-82
2022/10/25 02:41:40;;;;;;;8.68;3.00;;;12.70;99.90;;;;;;5033211;28;20399;-82
2022/10/25 02:44:06;;;;;;;6.38;2.28;;;12.80;99.90;;;;;;5046540;28;20040;-83
2022/10/25 02:46:31;;;;;;;5.93;2.63;;;12.70;99.90;;;;;;5035063;28;20067;-82
2022/10/25 02:48:57;;;;;;;10.65;2.88;;;12.70;99.90;;;;;;5033527;28;20046;-82
2022/10/25 02:51:23;;;;;;;6.05;2.38;;;12.70;99.90;;;;;;5016957;28;20124;-82
2022/10/25 02:53:48;;;;;;;6.35;2.25;;;12.80;99.90;;;;;;5031800;28;20048;-82
2022/10/25 02:56:18;;;;;;;5.78;2.10;;;12.80;99.90;;;;;;5039110;28;20096;-82
2022/10/25 02:58:45;;;;;;;4.63;1.80;;;12.80;99.90;;;;;;5032539;28;20055;-82
2022/10/25 03:01:12;;;;;;;10.82;2.22;;;12.90;99.90;;;;;;5015433;28;20040;-82
2022/10/25 03:03:39;;;;;;;4.88;2.28;;;12.90;99.90;;;;;;5033111;28;20483;-82
2022/10/25 03:06:05;;;;;;;4.60;1.80;;;12.90;99.90;;;;;;5032906;28;20066;-81
2022/10/25 03:08:32;;;;;;;7.22;2.20;;;12.90;99.90;;;;;;5043065;28;20041;-82
2022/10/25 03:10:58;;;;;;;11.68;2.30;;;13.00;99.90;;;;;;5046836;28;20155;-80
2022/10/25 03:13:23;;;;;;;6.47;2.13;;;12.90;99.90;;;;;;5030500;28;20091;-80
2022/10/25 03:15:49;;;;;;;10.18;2.60;;;12.90;99.90;;;;;;5032785;28;20033;-80
2022/10/25 03:18:15;;;;;;;7.72;2.47;;;12.90;99.90;;;;;;5031955;28;20103;-80
2022/10/25 03:20:42;;;;;;;9.38;2.10;;;12.90;99.90;;;;;;5042968;28;20040;-80
2022/10/25 03:23:08;;;;;;;8.27;2.42;;;12.80;99.90;;;;;;5030504;28;20037;-80
2022/10/25 03:25:34;;;;;;;5.97;2.45;;;12.80;99.90;;;;;;5032657;28;20048;-80
2022/10/25 03:28:00;;;;;;;9.07;2.40;;;12.70;99.90;;;;;;5033157;28;20491;-80
2022/10/25 03:30:26;;;;;;;5.95;2.42;;;12.80;99.90;;;;;;5033226;28;20099;-80
2022/10/25 03:32:52;;;;;;;2.50;1.58;;;12.70;99.90;;;;;;5046885;28;20562;-80
2022/10/25 03:35:18;;;;;;;7.30;2.58;;;12.70;99.90;;;;;;5033080;28;20124;-80
2022/10/25 03:37:44;;;;;;;4.47;2.05;;;12.60;99.90;;;;;;5033226;28;20120;-80
2022/10/25 03:40:10;;;;;;;10.55;3.08;;;12.60;99.90;;;;;;5032891;28;20046;-80
2022/10/25 03:42:35;;;;;;;7.95;2.88;;;12.60;99.90;;;;;;5031682;28;20079;-80
2022/10/25 03:45:02;;;;;;;6.85;2.08;;;12.60;99.90;;;;;;5034456;28;20034;-80
2022/10/25 03:47:27;;;;;;;4.72;1.70;;;12.60;99.90;;;;;;5046929;28;20045;-80
2022/10/25 03:49:53;;;;;;;9.75;2.13;;;12.60;99.90;;;;;;5032494;28;20124;-80
2022/10/25 03:52:18;;;;;;;8.55;2.45;;;12.60;99.90;;;;;;5015619;28;20041;-80
2022/10/25 03:54:44;;;;;;;8.30;2.30;;;12.60;99.90;;;;;;5014643;28;20400;-80
2022/10/25 03:57:10;;;;;;;6.35;2.10;;;12.60;99.90;;;;;;5014689;28;20045;-80
2022/10/25 03:59:35;;;;;;;11.05;3.30;;;12.60;99.90;;;;;;5013228;28;20049;-80
2022/10/25 04:02:01;;;;;;;6.70;2.15;;;12.60;99.90;;;;;;5031654;28;20041;-81
2022/10/25 04:04:27;;;;;;;13.40;2.42;;;12.50;99.90;;;;;;5015345;28;20033;-81
2022/10/25 04:06:53;;;;;;;4.45;1.65;;;12.50;99.90;;;;;;5015632;28;20487;-81
2022/10/25 04:09:18;;;;;;;5.80;2.40;;;12.40;99.90;;;;;;5015471;28;20159;-81
2022/10/25 04:11:44;;;;;;;6.25;2.08;;;12.40;99.90;;;;;;5032371;28;20037;-81
2022/10/25 04:14:10;;;;;;;3.75;1.80;;;12.30;99.90;;;;;;5040269;23;20483;-80
2022/10/25 04:16:35;;;;;;;3.25;1.45;;;12.30;99.90;;;;;;5055730;28;20056;-82
2022/10/25 04:19:01;;;;;;;7.88;2.50;;;12.30;99.90;;;;;;5038667;28;20048;-83
2022/10/25 04:21:27;;;;;;;6.93;2.30;;;12.20;99.90;;;;;;5056077;28;20047;-83
2022/10/25 04:23:53;;;;;;;8.07;1.85;;;12.20;99.90;;;;;;5037988;28;20025;-82
2022/10/25 04:26:19;;;;;;;5.40;1.98;;;12.20;99.90;;;;;;5038220;28;20037;-83
2022/10/25 04:28:53;;;;;;;10.43;2.50;;;12.20;99.90;;;;;;5055184;28;20123;-82
2022/10/25 04:31:20;;;;;;;7.57;2.35;;;12.20;99.90;;;;;;5056059;28;20037;-82
2022/10/25 04:33:53;;;;;;;8.00;2.38;;;12.20;99.90;;;;;;5037416;28;20040;-81
2022/10/25 04:36:19;;;;;;;3.58;2.08;;;12.20;99.90;;;;;;5049914;28;20041;-81
2022/10/25 04:38:48;;;;;;;3.88;1.77;;;12.20;99.90;;;;;;5003648;28;20040;-81
2022/10/25 04:41:14;;;;;;;6.32;2.45;;;12.10;99.90;;;;;;5018584;28;20049;-81
2022/10/25 04:43:40;;;;;;;9.18;2.22;;;12.10;99.90;;;;;;5042388;28;20037;-81
2022/10/25 04:46:06;;;;;;;6.85;1.55;;;12.10;99.90;;;;;;5054157;28;20509;-81
2022/10/25 04:48:31;;;;;;;7.78;2.28;;;12.00;99.90;;;;;;5035216;28;20047;-81
2022/10/25 04:50:59;;;;;;;12.77;2.30;;;12.10;99.90;;;;;;5034778;28;20048;-79
2022/10/25 04:53:24;;;;;;;4.70;2.10;;;12.10;99.90;;;;;;5053474;28;20041;-79
2022/10/25 04:56:05;;;;;;;5.40;2.55;;;12.10;99.90;;;;;;5053557;28;20044;-80
2022/10/25 04:58:31;;;;;;;10.82;2.72;;;12.10;99.90;;;;;;5052281;28;20044;-79
2022/10/25 05:01:00;;;;;;;10.77;2.33;;;12.10;99.90;;;;;;5022156;28;20025;-80
2022/10/25 05:03:27;;;;;;;6.45;2.10;;;12.20;99.90;;;;;;5053220;28;20041;-80
2022/10/25 05:05:52;;;;;;;6.72;2.40;;;12.10;99.90;;;;;;5038040;28;20116;-79
2022/10/25 05:08:18;;;;;;;7.50;3.00;;;12.10;99.90;;;;;;5054978;28;20171;-83
2022/10/25 05:10:44;;;;;;;8.40;2.50;;;12.10;99.90;;;;;;5052644;28;20482;-82
2022/10/25 05:13:09;;;;;;;8.73;2.80;;;12.00;99.90;;;;;;5053598;28;20055;-83
2022/10/25 05:15:35;;;;;;;3.67;2.13;;;12.10;99.90;;;;;;5033484;28;20052;-83
2022/10/25 05:18:01;;;;;;;8.18;2.72;;;12.10;99.90;;;;;;5018875;28;20136;-82
2022/10/25 05:20:28;;;;;;;5.45;2.75;;;12.20;99.90;;;;;;5031023;28;20037;-83
2022/10/25 05:22:54;;;;;;;5.50;2.10;;;12.20;99.90;;;;;;5054250;28;20091;-83
2022/10/25 05:25:20;;;;;;;7.00;2.53;;;12.20;99.90;;;;;;5036719;28;20143;-82
2022/10/25 05:27:46;;;;;;;5.70;1.90;;;12.10;99.90;;;;;;5054300;28;20103;-83
2022/10/25 05:30:11;;;;;;;7.22;2.30;;;12.10;99.90;;;;;;5054393;28;20376;-83
2022/10/25 05:32:37;;;;;;;6.25;2.30;;;12.10;99.90;;;;;;5033560;28;20064;-83
2022/10/25 05:35:03;;;;;;;8.15;2.90;;;12.10;99.90;;;;;;5028981;28;20048;-83
2022/10/25 05:37:30;;;;;;;9.18;2.05;;;12.00;99.90;;;;;;5054020;28;20128;-82
2022/10/25 05:39:55;;;;;;;5.88;2.10;;;12.00;99.90;;;;;;5036600;28;20033;-83
2022/10/25 05:42:21;;;;;;;7.93;2.15;;;11.90;99.90;;;;;;5036225;28;20513;-83
2022/10/25 05:44:46;;;;;;;6.57;2.58;;;11.90;99.90;;;;;;5052285;28;20029;-83
2022/10/25 05:47:12;;;;;;;8.60;2.88;;;11.90;99.90;;;;;;5037981;28;20048;-83
2022/10/25 05:49:41;;;;;;;9.30;2.33;;;11.90;99.90;;;;;;5035795;28;20545;-83
2022/10/25 05:52:07;;;;;;;6.82;2.55;;;11.90;99.90;;;;;;5052027;28;20425;-83
2022/10/25 05:54:33;;;;;;;9.40;2.10;;;11.80;99.90;;;;;;5051475;28;20094;-83
2022/10/25 05:56:59;;;;;;;6.30;2.17;;;11.90;99.90;;;;;;5051536;28;20529;-83
2022/10/25 05:59:24;;;;;;;6.15;2.15;;;11.90;99.90;;;;;;5052649;28;20044;-83
2022/10/25 06:01:50;;;;;;;10.00;3.20;;;12.00;99.90;;;;;;5053341;28;20175;-83
2022/10/25 06:04:16;;;;;;;7.82;1.90;;;12.00;99.90;;;;;;5053705;28;20497;-82
2022/10/25 06:06:44;;;;;;;12.43;3.45;;;12.00;99.90;;;;;;5037098;28;20052;-82
2022/10/25 06:09:10;;;;;;;7.55;2.00;;;12.00;99.90;;;;;;5036282;28;20419;-82
2022/10/25 06:11:36;;;;;;;7.20;2.30;;;12.10;99.90;;;;;;5022226;28;20041;-83
2022/10/25 06:14:03;;;;;;;6.57;2.08;;;12.10;99.90;;;;;;5033482;28;20060;-80
2022/10/25 06:16:29;;;;;;;6.68;1.90;;;12.10;99.90;;;;;;5053767;28;20077;-80
2022/10/25 06:18:54;;;;;;;8.43;1.73;;;12.10;99.90;;;;;;5053189;28;20116;-79
2022/10/25 06:21:23;;;;;;;4.35;1.80;;;12.20;99.90;;;;;;5053966;28;20106;-80
2022/10/25 06:23:49;;;;;;;5.32;2.83;;;12.10;99.90;;;;;;5052718;28;20094;-80
2022/10/25 06:26:21;;;;;;;9.75;2.03;;;12.20;99.90;;;;;;5051690;28;20076;-80
2022/10/25 06:28:50;;;;;;;8.23;2.35;;;12.20;99.90;;;;;;5036886;28;20083;-80
2022/10/25 06:31:17;;;;;;;8.65;1.85;;;12.20;99.90;;;;;;5053453;28;20033;-80
2022/10/25 06:33:43;;;;;;;11.93;1.80;;;12.20;99.90;;;;;;5049468;28;20491;-81
2022/10/25 06:36:18;;;;;;;6.93;1.70;;;12.20;99.90;;;;;;5037412;28;20033;-80
2022/10/25 06:38:44;;;;;;;10.35;2.13;;;12.30;99.90;;;;;;5022199;28;20040;-79
2022/10/25 06:41:12;;;;;;;8.80;2.22;;;12.20;99.90;;;;;;5054911;28;20073;-81
2022/10/25 06:43:38;;;;;;;6.03;1.85;;;12.30;99.90;;;;;;5053486;28;20037;-80
2022/10/25 06:46:15;;;;;;;6.10;2.13;;;12.30;99.90;;;;;;5043871;28;20037;-80
2022/10/25 06:48:41;;;;;;;3.97;1.23;;;12.30;99.90;;;;;;5045113;28;20391;-79
2022/10/25 06:51:08;;;;;;;4.57;1.48;;;12.30;99.90;;;;;;5036163;28;20037;-80
2022/10/25 06:53:35;;;;;;;6.35;1.95;;;12.30;99.90;;;;;;5050117;28;20045;-80
2022/10/25 06:56:01;;;;;;;3.35;1.38;;;12.30;99.90;;;;;;5053128;28;20117;-80
2022/10/25 06:58:31;;;;;;;8.77;2.05;;;12.40;99.90;;;;;;5051128;28;20337;-80
2022/10/25 07:01:02;;;;;;;7.97;2.00;;;12.40;99.90;;;;;;5050961;28;20037;-80
2022/10/25 07:03:33;;;;;;;5.57;1.77;;;12.40;99.90;;;;;;5036914;28;20033;-79
2022/10/25 07:06:13;;;;;;;6.07;1.52;;;12.50;99.90;;;;;;5051312;28;20049;-79
2022/10/25 07:08:42;;;;;;;7.25;2.08;;;12.50;99.90;;;;;;5051097;28;20482;-79
2022/10/25 07:11:18;;;;;;;4.05;1.55;;;12.60;99.90;;;;;;5052376;28;20051;-80
2022/10/25 07:13:45;;;;;;;7.93;2.05;;;12.70;99.90;;;;;;5031619;28;20061;-79
2022/10/25 07:16:13;;;;;;;7.82;2.40;;;13.00;99.90;;;;;;5034359;28;20049;-79
2022/10/25 07:18:39;;;;;;;4.57;1.80;;;13.10;99.90;;;;;;5034484;28;20083;-79
2022/10/25 07:21:07;;;;;;;6.35;1.98;;;13.50;99.90;;;;;;5046843;28;20036;-79
2022/10/25 07:23:33;;;;;;;8.85;1.98;;;13.50;99.90;;;;;;5048307;28;20049;-79
2022/10/25 07:25:59;;;;;;;9.15;2.28;;;13.80;99.90;;;;;;5019041;28;20043;-79
2022/10/25 07:28:26;;;;;;;5.75;2.28;;;13.80;99.90;;;;;;5046095;28;20045;-79
2022/10/25 07:30:52;;;;;;;6.70;1.80;;;14.40;99.90;;;;;;5031030;28;20083;-79
2022/10/25 07:33:18;;;;;;;7.55;2.25;;;15.00;99.90;;;;;;5051970;28;20037;-79
2022/10/25 07:35:49;;;;;;;4.25;1.88;;;15.80;99.90;;;;;;5048519;28;20137;-79
2022/10/25 07:38:15;;;;;;;5.20;1.70;;;16.60;99.90;;;;;;5015258;28;20116;-81
2022/10/25 07:40:41;;;;;;;5.32;1.63;;;17.30;99.90;;;;;;5015474;28;20052;-81
2022/10/25 07:43:08;;;;;;;13.85;1.85;;;17.80;99.90;;;;;;5046460;28;20041;-81
2022/10/25 07:45:35;;;;;;;8.13;1.67;;;18.30;99.90;;;;;;5052170;28;20040;-81
2022/10/25 07:48:01;;;;;;;6.72;1.55;;;18.90;99.90;;;;;;5033839;28;20049;-82
2022/10/25 07:50:26;;;;;;;11.70;2.63;;;19.20;99.90;;;;;;5030132;28;20176;-81
2022/10/25 07:52:54;;;;;;;4.88;1.70;;;;;;;;;;5049995;28;20041;-82
2022/10/25 07:55:20;;;;;;;7.47;2.30;;;;;;;;;;5031717;28;20402;-83
2022/10/25 07:57:46;;;;;;;4.22;1.83;;;;;;;;;;5046447;28;20414;-83
2022/10/25 08:00:13;;;;;;;3.15;1.52;;;;;;;;;;5029093;28;20041;-83
2022/10/25 08:02:40;;;;;;;5.22;1.63;;;;;;;;;;5051949;28;20576;-83
2022/10/25 08:05:08;;;;;;;5.47;2.17;;;;;;;;;;5028617;28;20069;-83
2022/10/25 08:07:34;;;;;;;4.55;1.90;;;;;;;;;;5036836;28;20123;-83
2022/10/25 08:10:00;;;;;;;6.20;2.17;;;;;;;;;;5050046;28;20509;-80
2022/10/25 08:12:26;;;;;;;7.90;1.63;;;;;;;;;;5051726;28;20053;-80
2022/10/25 08:14:52;;;;;;;5.38;1.60;;;;;;;;;;5050320;28;20056;-80
2022/10/25 08:17:18;;;;;;;12.43;1.55;;;;;;;;;;5034686;28;20033;-80
2022/10/25 08:19:44;;;;;;;6.53;1.90;;;;;;;;;;5033892;28;20033;-80
2022/10/25 08:22:10;;;;;;;4.35;1.80;;;;;;;;;;5033592;28;20033;-80
2022/10/25 08:24:38;;;;;;;3.80;1.17;;;;;;;;;;5051026;28;20387;-80
2022/10/25 08:27:05;;;;;;;4.88;2.13;;;;;;;;;;5050098;28;20151;-83
2022/10/25 08:29:31;;;;;;;13.57;2.58;;;;;;;;;;5051684;28;20496;-83
2022/10/25 08:31:57;;;;;;;7.95;1.67;;;;;;;;;;5034346;28;20041;-83
2022/10/25 08:34:23;;;;;;;10.43;2.55;;;;;;;;;;5050516;28;20048;-83
2022/10/25 08:36:48;;;;;;;7.65;2.50;;;22.40;99.90;;;;;;5049637;28;20076;-84
2022/10/25 08:39:16;;;;;;;7.00;1.60;;;22.30;99.90;;;;;;5015138;28;20085;-83
2022/10/25 08:41:57;;;;;;;2.67;1.48;;;22.60;99.90;;;;;;5048976;28;20049;-83
2022/10/25 08:44:32;;;;;;;11.73;2.47;;;22.60;99.90;;;;;;5046493;28;20364;-84
2022/10/25 08:47:18;;;;;;;6.88;2.25;;;22.50;99.90;;;;;;5032367;28;20048;-84
2022/10/25 08:49:54;;;;;;;;;;;22.80;99.90;;;;;;5039786;28;20150;-84
2022/10/25 08:52:31;;;;;;;7.68;2.15;;;;;;;;;;5051579;28;19917;-83
2022/10/25 08:54:59;;;;;;;6.65;1.95;;;;;;;;;;5050824;28;20063;-84
2022/10/25 08:57:27;;;;;;;10.38;2.10;;;;;;;;;;5046453;28;20131;-84
2022/10/25 09:00:06;;;;;;;4.75;1.40;;;23.70;99.90;;;;;;5050966;28;20123;-80
2022/10/25 09:02:54;;;;;;;4.38;1.77;;;23.50;99.90;;;;;;5054040;28;20048;-80
2022/10/25 09:05:37;;;;;;;4.07;1.50;;;23.80;99.90;;;;;;5055506;28;20124;-80
2022/10/25 09:08:15;;;;;;;5.40;1.70;;;;;;;;;;5054344;28;20184;-80
2022/10/25 09:10:50;;;;;;;7.88;1.83;;;;;;;;;;5053186;28;20394;-80
2022/10/25 09:13:34;;;;;;;7.97;1.55;;;;;;;;;;5054834;28;20067;-81
2022/10/25 09:16:08;;;;;;;6.40;1.45;;;;;;;;;;5053249;28;20044;-80
2022/10/25 09:18:53;;;;;;;7.05;2.03;;;;;;;;;;5054061;28;20491;-82
2022/10/25 09:21:42;;;;;;;2.70;1.23;;;;;;;;;;5052822;28;20438;-83
2022/10/25 09:24:23;;;;;;;4.78;1.52;;;;;;;;;;5035778;28;20044;-82
2022/10/25 09:26:59;;;;;;;5.72;1.95;;;;;;;;;;5054545;28;20047;-82
2022/10/25 09:29:30;;;;;;;3.90;1.42;;;;;;;;;;5036137;28;20107;-82
2022/10/25 09:31:58;;;;;;;1.67;1.25;;;23.90;97.50;;;;;;5034645;28;20065;-82
2022/10/25 09:34:31;;;;;;;6.97;1.85;;;23.70;98.60;;;;;;5021481;28;20596;-84
2022/10/25 09:37:19;;;;;;;6.32;1.13;;;21.70;99.90;;;;;;5054110;28;20067;-84
2022/10/25 09:39:54;;;;;;;2.63;1.25;;;21.10;99.90;;;;;;5036257;28;20037;-84
2022/10/25 09:42:29;;;;;;;2.97;1.10;;;20.80;99.90;;;;;;5036790;28;20379;-84
2022/10/25 09:45:00;;;;;;;10.55;1.63;;;20.60;99.90;;;;;;5051057;28;20067;-84
2022/10/25 09:47:43;;;;;;;3.90;1.40;;;20.80;99.90;;;;;;5051599;28;20056;-84
2022/10/25 09:50:23;;;;;;;2.65;1.20;;;20.70;99.90;;;;;;5052995;28;20371;-80
2022/10/25 09:52:58;;;;;;;6.82;1.75;;;;;;;;;;5053924;28;20069;-80
2022/10/25 09:55:31;;;;;;;7.50;2.17;;;;;;;;;;5051751;28;20037;-80
2022/10/25 09:57:58;;;;;;;3.97;1.55;;;;;;;;;;5041488;28;20076;-80
2022/10/25 10:00:24;;;;;;;5.32;1.33;;;22.60;99.90;;;;;;5033552;28;20436;-80
2022/10/25 10:02:49;;;;;;;6.47;1.02;;;22.60;99.90;;;;;;5033484;28;20029;-80
2022/10/25 10:05:17;;;;;;;6.10;1.90;;;22.50;99.90;;;;;;5047270;28;20703;-80
2022/10/25 10:07:44;;;;;;;3.70;1.10;;;21.90;99.90;;;;;;5053098;28;20041;-84
2022/10/25 10:10:14;;;;;;;3.75;1.40;;;21.90;99.90;;;;;;5037886;28;20041;-84
2022/10/25 10:12:52;;;;;;;8.70;1.98;;;22.20;99.90;;;;;;5043633;28;20059;-84
2022/10/25 10:15:45;;;;;;;3.70;1.20;;;;;;;;;;5036331;28;20041;-84
2022/10/25 10:18:21;;;;;;;5.93;2.20;;;22.60;99.90;;;;;;5010015;28;20045;-84
2022/10/25 10:21:10;;;;;;;7.65;1.40;;;22.60;99.90;;;;;;5052315;28;20045;-84
2022/10/25 10:23:54;;;;;;;5.07;1.77;;;22.50;99.90;;;;;;5015118;28;20050;-82
2022/10/25 10:26:30;;;;;;;3.78;1.73;;;22.60;99.90;;;;;;5038199;28;20106;-82
2022/10/25 10:29:20;;;;;;;2.30;1.25;;;22.70;99.90;;;;;;5049398;28;20495;-82
2022/10/25 10:32:21;;;;;;;4.72;1.33;;;23.30;99.90;;;;;;5029067;28;20053;-82
2022/10/25 10:34:53;;;;;;;3.47;1.63;;;23.50;99.90;;;;;;5026680;28;20044;-83
2022/10/25 10:37:18;;;;;;;13.60;2.05;;;23.70;99.70;;;;;;5052258;28;20049;-83
2022/10/25 10:39:54;;;;;;;5.22;1.08;;;24.00;99.90;;;;;;5047861;28;20170;-83
2022/10/25 10:42:40;;;;;;;7.47;1.83;;;24.40;99.70;;;;;;5038072;28;20116;-80
2022/10/25 10:45:09;;;;;;;12.85;1.58;;;24.50;98.60;;;;;;5051583;28;20083;-80
2022/10/25 10:47:40;;;;;;;5.32;1.10;;;24.80;98.40;;;;;;5051666;28;20394;-81
2022/10/25 10:50:25;;;;;;;6.25;1.10;;;25.20;99.90;;;;;;5043342;28;20040;-81
2022/10/25 10:52:55;;;;;;;3.30;1.08;;;;;;;;;;5035715;28;20048;-81
2022/10/25 10:55:25;;;;;;;1.90;0.90;;;;;;;;;;5058392;28;20116;-81
2022/10/25 10:57:55;;;;;;;5.75;1.25;;;;;;;;;;5052536;28;20044;-82
2022/10/25 11:00:21;;;;;;;6.05;1.50;;;;;;;;;;5034700;28;20113;-82
2022/10/25 11:02:48;;;;;;;1.90;1.38;;;;;;;;;;5034965;28;20033;-82
2022/10/25 11:05:23;;;;;;;5.03;1.15;;;;;;;;;;5035282;28;20040;-82
2022/10/25 11:07:57;;;;;;;4.85;1.20;;;;;;;;;;5052531;28;20041;-82
2022/10/25 11:10:26;;;;;;;4.68;1.17;;;;;;;;;;5036476;28;20047;-82
2022/10/25 11:13:11;;;;;;;5.40;1.13;;;25.20;95.90;;;;;;5049847;28;20060;-82
2022/10/25 11:15:55;;;;;;;4.50;1.40;;;24.70;96.20;;;;;;5050026;28;20194;-82
2022/10/25 11:18:53;;;;;;;3.28;1.45;;;23.80;98.10;;;;;;5033973;28;20391;-82
2022/10/25 11:21:37;;;;;;;8.60;1.65;;;23.20;99.60;;;;;;5009566;28;20103;-82
2022/10/25 11:24:46;;;;;;;4.28;1.10;;;22.70;99.90;;;;;;5050427;28;20090;-82
2022/10/25 11:27:37;;;;;;;5.65;1.30;;;21.50;99.90;;;;;;5033899;28;20044;-82
2022/10/25 11:30:18;;;;;;;3.40;1.17;;;21.40;99.90;;;;;;5051561;28;20044;-82
2022/10/25 11:33:10;;;;;;;4.72;1.40;;;21.20;99.90;;;;;;5032347;28;20048;-81
2022/10/25 11:35:48;;;;;;;3.65;1.48;;;20.70;99.90;;;;;;5033045;28;20057;-82
2022/10/25 11:38:35;;;;;;;5.43;1.35;;;20.20;99.90;;;;;;5047846;28;20131;-82
2022/10/25 11:41:12;;;;;;;3.92;1.25;;;19.90;99.90;;;;;;5040665;28;20475;-82
2022/10/25 11:43:52;;;;;;;2.78;1.10;;;19.50;99.90;;;;;;5035630;28;20540;-82
2022/10/25 11:46:29;;;;;;;3.08;1.50;;;19.20;99.90;;;;;;5050190;28;20082;-82
2022/10/25 11:49:09;;;;;;;2.22;1.08;;;18.90;99.90;;;;;;5049141;28;20036;-79
2022/10/25 11:51:45;;;;;;;5.88;1.80;;;18.90;99.90;;;;;;5032505;28;20093;-79
2022/10/25 11:55:05;;;;;;;5.85;1.23;;;18.90;99.90;;;;;;5029553;28;20037;-78
2022/10/25 11:57:31;;;;;;;4.35;1.27;;;18.80;99.90;;;;;;4989756;28;20045;-81
2022/10/25 12:00:20;;;;;;;7.15;2.15;;;18.80;99.90;;;;;;5039177;28;20047;-82
2022/10/25 12:03:04;;;;;;;4.88;1.60;;;18.80;99.90;;;;;;5032381;28;20100;-82
2022/10/25 12:06:18;;;;;;;4.10;2.25;;;18.70;99.90;;;;;;5032625;28;20045;-81
2022/10/25 12:09:13;;;;;;;5.60;1.50;;;18.50;99.90;;;;;;4999618;28;20412;-81
2022/10/25 12:11:44;;;;;;;4.07;1.70;;;18.50;99.90;;;;;;5047746;28;20071;-82
2022/10/25 12:14:20;;;;;;;2.40;1.38;;;18.40;99.90;;;;;;5035361;28;20053;-81
2022/10/25 12:16:46;;;;;;;3.03;1.20;;;18.40;99.90;;;;;;5050794;28;20041;-81
2022/10/25 12:19:21;;;;;;;3.00;1.48;;;;;;;;;;5034460;28;20041;-81
2022/10/25 12:22:06;;;;;;;3.70;1.02;;;18.20;99.90;;;;;;5051191;28;20406;-82
2022/10/25 12:24:48;;;;;;;6.97;2.08;;;18.20;99.90;;;;;;5034772;28;20083;-82
2022/10/25 12:27:18;;;;;;;5.72;1.88;;;18.20;99.90;;;;;;5049555;28;20463;-82
2022/10/25 12:29:52;;;;;;;6.47;3.10;;;18.10;99.90;;;;;;5049767;28;20483;-82
2022/10/25 12:32:24;;;;;;;4.70;1.80;;;18.00;99.90;;;;;;5035584;28;20051;-82
2022/10/25 12:34:52;;;;;;;6.90;1.95;;;18.00;99.90;;;;;;5039082;28;20080;-83
2022/10/25 12:37:45;;;;;;;5.47;2.28;;;17.80;99.90;;;;;;5056518;28;20080;-85
2022/10/25 12:40:17;;;;;;;6.20;1.90;;;17.70;99.90;;;;;;5030084;28;20116;-84
2022/10/25 12:42:47;;;;;;;10.85;2.53;;;17.60;99.90;;;;;;5056373;28;20048;-85
2022/10/25 12:45:32;;;;;;;7.35;2.33;;;17.50;99.90;;;;;;5055740;28;20422;-84
2022/10/25 12:48:35;;;;;;;4.75;2.22;;;17.40;99.90;;;;;;5053194;28;20110;-84
2022/10/25 12:51:12;;;;;;;7.82;2.40;;;17.60;99.90;;;;;;5050525;28;20509;-84
2022/10/25 12:53:56;;;;;;;4.43;1.95;;;17.60;99.90;;;;;;5055884;28;20128;-84
2022/10/25 12:56:31;;;;;;;5.85;2.25;;;17.70;99.90;;;;;;5038388;28;20037;-84
2022/10/25 12:58:57;;;;;;;3.83;2.08;;;17.70;99.90;;;;;;5037263;28;20033;-84
2022/10/25 13:01:51;;;;;;;6.38;2.30;;;17.60;99.90;;;;;;5038138;28;20044;-84
2022/10/25 13:04:35;;;;;;;7.00;2.35;;;17.60;99.90;;;;;;5049712;28;20494;-85
2022/10/25 13:07:04;;;;;;;4.28;2.40;;;17.40;99.90;;;;;;5038535;28;20431;-84
2022/10/25 13:09:32;;;;;;;4.95;2.53;;;17.30;99.90;;;;;;5054092;28;20040;-84
2022/10/25 13:12:01;;;;;;;5.88;2.30;;;17.10;99.90;;;;;;5052636;28;20048;-82
2022/10/25 13:14:50;;;;;;;6.70;2.42;;;17.10;99.90;;;;;;5054038;28;20068;-82
2022/10/25 13:17:16;;;;;;;6.65;2.58;;;17.10;99.90;;;;;;5050500;28;20059;-82
2022/10/25 13:19:49;;;;;;;6.47;2.45;;;17.10;99.90;;;;;;5054517;28;20040;-82
2022/10/25 13:22:36;;;;;;;6.38;2.40;;;17.10;99.90;;;;;;5054215;28;20040;-82
2022/10/25 13:25:11;;;;;;;4.90;2.63;;;17.10;99.90;;;;;;5054160;28;20041;-82